sensor_id;sensor_type;location;lat;lon;timestamp;P1;durP1;ratioP1;P2;durP2;ratioP2
78778;SDS011;68121;52.404;5.318;2024-01-30T00:02:15;10.77;;;5.95;;
78778;SDS011;68121;52.404;5.318;2024-01-30T00:04:41;13.82;;;6.80;;
78778;SDS011;68121;52.404;5.318;2024-01-30T00:07:07;13.65;;;6.55;;
78778;SDS011;68121;52.404;5.318;2024-01-30T00:09:33;11.45;;;5.90;;
78778;SDS011;68121;52.404;5.318;2024-01-30T00:11:59;10.77;;;6.25;;
78778;SDS011;68121;52.404;5.318;2024-01-30T00:14:25;14.73;;;6.80;;
78778;SDS011;68121;52.404;5.318;2024-01-30T00:16:52;11.40;;;5.55;;
78778;SDS011;68121;52.404;5.318;2024-01-30T00:19:18;12.65;;;6.78;;
78778;SDS011;68121;52.404;5.318;2024-01-30T00:21:44;11.52;;;7.50;;
78778;SDS011;68121;52.404;5.318;2024-01-30T00:24:10;10.80;;;5.55;;
78778;SDS011;68121;52.404;5.318;2024-01-30T00:26:36;12.52;;;6.35;;
78778;SDS011;68121;52.404;5.318;2024-01-30T00:29:02;11.70;;;6.65;;
78778;SDS011;68121;52.404;5.318;2024-01-30T00:31:28;12.40;;;5.97;;
78778;SDS011;68121;52.404;5.318;2024-01-30T00:33:55;13.55;;;6.03;;
78778;SDS011;68121;52.404;5.318;2024-01-30T00:36:21;9.52;;;5.88;;
78778;SDS011;68121;52.404;5.318;2024-01-30T00:38:47;11.68;;;6.68;;
78778;SDS011;68121;52.404;5.318;2024-01-30T00:41:13;11.68;;;6.53;;
78778;SDS011;68121;52.404;5.318;2024-01-30T00:43:39;10.55;;;5.88;;
78778;SDS011;68121;52.404;5.318;2024-01-30T00:46:05;10.60;;;5.82;;
78778;SDS011;68121;52.404;5.318;2024-01-30T00:48:31;8.45;;;5.55;;
78778;SDS011;68121;52.404;5.318;2024-01-30T00:50:57;10.10;;;5.95;;
78778;SDS011;68121;52.404;5.318;2024-01-30T00:53:23;10.13;;;5.70;;
78778;SDS011;68121;52.404;5.318;2024-01-30T00:55:49;10.50;;;5.70;;
78778;SDS011;68121;52.404;5.318;2024-01-30T00:58:15;12.82;;;6.03;;
78778;SDS011;68121;52.404;5.318;2024-01-30T01:00:41;10.65;;;6.32;;
78778;SDS011;68121;52.404;5.318;2024-01-30T01:03:08;9.38;;;5.72;;
78778;SDS011;68121;52.404;5.318;2024-01-30T01:05:34;11.27;;;5.60;;
78778;SDS011;68121;52.404;5.318;2024-01-30T01:08:00;11.63;;;6.22;;
78778;SDS011;68121;52.404;5.318;2024-01-30T01:10:26;10.68;;;6.07;;
78778;SDS011;68121;52.404;5.318;2024-01-30T01:12:52;10.40;;;5.85;;
78778;SDS011;68121;52.404;5.318;2024-01-30T01:15:18;14.18;;;6.20;;
78778;SDS011;68121;52.404;5.318;2024-01-30T01:17:45;9.30;;;6.18;;
78778;SDS011;68121;52.404;5.318;2024-01-30T01:20:11;11.02;;;5.68;;
78778;SDS011;68121;52.404;5.318;2024-01-30T01:22:37;10.45;;;6.20;;
78778;SDS011;68121;52.404;5.318;2024-01-30T01:25:04;10.68;;;6.65;;
78778;SDS011;68121;52.404;5.318;2024-01-30T01:27:33;11.35;;;5.85;;
78778;SDS011;68121;52.404;5.318;2024-01-30T01:30:04;11.80;;;6.05;;
78778;SDS011;68121;52.404;5.318;2024-01-30T01:32:31;13.95;;;6.05;;
78778;SDS011;68121;52.404;5.318;2024-01-30T01:34:57;11.43;;;6.10;;
78778;SDS011;68121;52.404;5.318;2024-01-30T01:37:23;11.35;;;5.60;;
78778;SDS011;68121;52.404;5.318;2024-01-30T01:39:52;10.82;;;5.28;;
78778;SDS011;68121;52.404;5.318;2024-01-30T01:42:18;11.80;;;5.25;;
78778;SDS011;68121;52.404;5.318;2024-01-30T01:44:44;9.27;;;6.38;;
78778;SDS011;68121;52.404;5.318;2024-01-30T01:47:10;10.02;;;5.65;;
78778;SDS011;68121;52.404;5.318;2024-01-30T01:49:36;10.15;;;5.28;;
78778;SDS011;68121;52.404;5.318;2024-01-30T01:52:03;9.75;;;5.68;;
78778;SDS011;68121;52.404;5.318;2024-01-30T01:54:30;12.75;;;5.70;;
78778;SDS011;68121;52.404;5.318;2024-01-30T01:56:56;11.80;;;5.75;;
78778;SDS011;68121;52.404;5.318;2024-01-30T01:59:22;12.85;;;6.65;;
78778;SDS011;68121;52.404;5.318;2024-01-30T02:01:50;9.75;;;6.07;;
78778;SDS011;68121;52.404;5.318;2024-01-30T02:04:17;11.77;;;6.15;;
78778;SDS011;68121;52.404;5.318;2024-01-30T02:06:43;13.00;;;6.15;;
78778;SDS011;68121;52.404;5.318;2024-01-30T02:09:09;9.90;;;5.60;;
78778;SDS011;68121;52.404;5.318;2024-01-30T02:11:35;9.23;;;5.68;;
78778;SDS011;68121;52.404;5.318;2024-01-30T02:14:02;12.68;;;6.43;;
78778;SDS011;68121;52.404;5.318;2024-01-30T02:16:29;8.82;;;5.18;;
78778;SDS011;68121;52.404;5.318;2024-01-30T02:18:56;11.80;;;6.13;;
78778;SDS011;68121;52.404;5.318;2024-01-30T02:21:22;11.73;;;6.18;;
78778;SDS011;68121;52.404;5.318;2024-01-30T02:23:48;11.98;;;6.00;;
78778;SDS011;68121;52.404;5.318;2024-01-30T02:26:15;10.70;;;6.28;;
78778;SDS011;68121;52.404;5.318;2024-01-30T02:28:41;10.93;;;6.05;;
78778;SDS011;68121;52.404;5.318;2024-01-30T02:31:07;9.70;;;5.88;;
78778;SDS011;68121;52.404;5.318;2024-01-30T02:33:33;9.00;;;5.28;;
78778;SDS011;68121;52.404;5.318;2024-01-30T02:35:59;10.05;;;5.25;;
78778;SDS011;68121;52.404;5.318;2024-01-30T02:38:25;11.60;;;6.13;;
78778;SDS011;68121;52.404;5.318;2024-01-30T02:40:52;9.23;;;5.35;;
78778;SDS011;68121;52.404;5.318;2024-01-30T02:43:18;10.93;;;5.90;;
78778;SDS011;68121;52.404;5.318;2024-01-30T02:45:45;12.07;;;6.20;;
78778;SDS011;68121;52.404;5.318;2024-01-30T02:48:11;11.75;;;6.38;;
78778;SDS011;68121;52.404;5.318;2024-01-30T02:50:37;8.68;;;4.97;;
78778;SDS011;68121;52.404;5.318;2024-01-30T02:53:03;10.70;;;6.10;;
78778;SDS011;68121;52.404;5.318;2024-01-30T02:55:29;10.07;;;6.03;;
78778;SDS011;68121;52.404;5.318;2024-01-30T02:57:55;10.40;;;6.10;;
78778;SDS011;68121;52.404;5.318;2024-01-30T03:00:21;13.18;;;5.88;;
78778;SDS011;68121;52.404;5.318;2024-01-30T03:02:47;9.60;;;4.93;;
78778;SDS011;68121;52.404;5.318;2024-01-30T03:05:13;9.75;;;5.88;;
78778;SDS011;68121;52.404;5.318;2024-01-30T03:07:39;9.23;;;5.25;;
78778;SDS011;68121;52.404;5.318;2024-01-30T03:10:05;11.25;;;5.18;;
78778;SDS011;68121;52.404;5.318;2024-01-30T03:12:32;9.80;;;5.63;;
78778;SDS011;68121;52.404;5.318;2024-01-30T03:14:58;8.50;;;5.35;;
78778;SDS011;68121;52.404;5.318;2024-01-30T03:17:24;8.02;;;5.25;;
78778;SDS011;68121;52.404;5.318;2024-01-30T03:19:50;9.05;;;5.53;;
78778;SDS011;68121;52.404;5.318;2024-01-30T03:22:17;11.90;;;5.88;;
78778;SDS011;68121;52.404;5.318;2024-01-30T03:24:43;10.60;;;5.78;;
78778;SDS011;68121;52.404;5.318;2024-01-30T03:27:09;9.52;;;5.00;;
78778;SDS011;68121;52.404;5.318;2024-01-30T03:29:35;10.95;;;5.50;;
78778;SDS011;68121;52.404;5.318;2024-01-30T03:32:01;12.45;;;6.63;;
78778;SDS011;68121;52.404;5.318;2024-01-30T03:34:29;10.50;;;5.93;;
78778;SDS011;68121;52.404;5.318;2024-01-30T03:36:55;11.35;;;5.53;;
78778;SDS011;68121;52.404;5.318;2024-01-30T03:39:21;11.25;;;5.78;;
78778;SDS011;68121;52.404;5.318;2024-01-30T03:41:47;8.48;;;5.30;;
78778;SDS011;68121;52.404;5.318;2024-01-30T03:44:13;9.07;;;5.40;;
78778;SDS011;68121;52.404;5.318;2024-01-30T03:46:39;10.68;;;5.43;;
78778;SDS011;68121;52.404;5.318;2024-01-30T03:49:05;12.25;;;5.85;;
78778;SDS011;68121;52.404;5.318;2024-01-30T03:51:31;15.00;;;6.45;;
78778;SDS011;68121;52.404;5.318;2024-01-30T03:53:57;9.45;;;4.90;;
78778;SDS011;68121;52.404;5.318;2024-01-30T03:56:23;11.75;;;5.72;;
78778;SDS011;68121;52.404;5.318;2024-01-30T03:58:51;10.93;;;5.82;;
78778;SDS011;68121;52.404;5.318;2024-01-30T04:01:17;12.77;;;5.78;;
78778;SDS011;68121;52.404;5.318;2024-01-30T04:03:43;8.02;;;5.28;;
78778;SDS011;68121;52.404;5.318;2024-01-30T04:06:10;9.50;;;4.97;;
78778;SDS011;68121;52.404;5.318;2024-01-30T04:08:36;11.35;;;5.00;;
78778;SDS011;68121;52.404;5.318;2024-01-30T04:11:03;8.13;;;5.43;;
78778;SDS011;68121;52.404;5.318;2024-01-30T04:13:31;9.60;;;5.22;;
78778;SDS011;68121;52.404;5.318;2024-01-30T04:15:59;9.77;;;5.32;;
78778;SDS011;68121;52.404;5.318;2024-01-30T04:18:27;10.73;;;5.43;;
78778;SDS011;68121;52.404;5.318;2024-01-30T04:20:53;7.40;;;5.05;;
78778;SDS011;68121;52.404;5.318;2024-01-30T04:23:19;11.20;;;5.93;;
78778;SDS011;68121;52.404;5.318;2024-01-30T04:25:46;8.75;;;5.03;;
78778;SDS011;68121;52.404;5.318;2024-01-30T04:28:12;10.15;;;5.80;;
78778;SDS011;68121;52.404;5.318;2024-01-30T04:30:38;11.40;;;6.13;;
78778;SDS011;68121;52.404;5.318;2024-01-30T04:33:05;10.02;;;5.75;;
78778;SDS011;68121;52.404;5.318;2024-01-30T04:35:31;10.80;;;6.10;;
78778;SDS011;68121;52.404;5.318;2024-01-30T04:37:57;10.52;;;6.50;;
78778;SDS011;68121;52.404;5.318;2024-01-30T04:40:23;10.55;;;5.63;;
78778;SDS011;68121;52.404;5.318;2024-01-30T04:42:49;11.43;;;5.03;;
78778;SDS011;68121;52.404;5.318;2024-01-30T04:45:15;10.80;;;6.35;;
78778;SDS011;68121;52.404;5.318;2024-01-30T04:47:41;12.52;;;6.07;;
78778;SDS011;68121;52.404;5.318;2024-01-30T04:50:07;10.02;;;5.85;;
78778;SDS011;68121;52.404;5.318;2024-01-30T04:52:34;11.43;;;7.32;;
78778;SDS011;68121;52.404;5.318;2024-01-30T04:55:01;14.65;;;7.00;;
78778;SDS011;68121;52.404;5.318;2024-01-30T04:57:27;11.32;;;6.82;;
78778;SDS011;68121;52.404;5.318;2024-01-30T04:59:53;12.88;;;6.72;;
78778;SDS011;68121;52.404;5.318;2024-01-30T05:02:19;6.38;;;4.63;;
78778;SDS011;68121;52.404;5.318;2024-01-30T05:04:45;12.23;;;6.18;;
78778;SDS011;68121;52.404;5.318;2024-01-30T05:07:11;13.02;;;6.82;;
78778;SDS011;68121;52.404;5.318;2024-01-30T05:09:37;11.75;;;6.18;;
78778;SDS011;68121;52.404;5.318;2024-01-30T05:12:03;9.60;;;6.70;;
78778;SDS011;68121;52.404;5.318;2024-01-30T05:14:30;12.52;;;6.40;;
78778;SDS011;68121;52.404;5.318;2024-01-30T05:16:56;13.10;;;6.65;;
78778;SDS011;68121;52.404;5.318;2024-01-30T05:19:22;13.23;;;6.38;;
78778;SDS011;68121;52.404;5.318;2024-01-30T05:21:49;11.10;;;5.82;;
78778;SDS011;68121;52.404;5.318;2024-01-30T05:24:15;10.98;;;6.20;;
78778;SDS011;68121;52.404;5.318;2024-01-30T05:26:41;12.18;;;6.78;;
78778;SDS011;68121;52.404;5.318;2024-01-30T05:29:07;12.27;;;6.75;;
78778;SDS011;68121;52.404;5.318;2024-01-30T05:31:33;11.55;;;5.68;;
78778;SDS011;68121;52.404;5.318;2024-01-30T05:34:00;11.32;;;6.30;;
78778;SDS011;68121;52.404;5.318;2024-01-30T05:36:26;13.70;;;5.75;;
78778;SDS011;68121;52.404;5.318;2024-01-30T05:38:52;10.68;;;5.18;;
78778;SDS011;68121;52.404;5.318;2024-01-30T05:41:19;11.75;;;5.45;;
78778;SDS011;68121;52.404;5.318;2024-01-30T05:43:46;11.55;;;5.88;;
78778;SDS011;68121;52.404;5.318;2024-01-30T05:46:12;15.18;;;6.30;;
78778;SDS011;68121;52.404;5.318;2024-01-30T05:48:38;10.80;;;5.25;;
78778;SDS011;68121;52.404;5.318;2024-01-30T05:51:04;11.70;;;5.93;;
78778;SDS011;68121;52.404;5.318;2024-01-30T05:53:32;13.23;;;6.93;;
78778;SDS011;68121;52.404;5.318;2024-01-30T05:55:58;10.90;;;5.82;;
78778;SDS011;68121;52.404;5.318;2024-01-30T05:58:27;14.50;;;5.63;;
78778;SDS011;68121;52.404;5.318;2024-01-30T06:00:53;9.90;;;5.50;;
78778;SDS011;68121;52.404;5.318;2024-01-30T06:03:19;10.20;;;5.60;;
78778;SDS011;68121;52.404;5.318;2024-01-30T06:05:45;8.63;;;5.40;;
78778;SDS011;68121;52.404;5.318;2024-01-30T06:08:11;10.52;;;5.68;;
78778;SDS011;68121;52.404;5.318;2024-01-30T06:10:37;11.02;;;5.22;;
78778;SDS011;68121;52.404;5.318;2024-01-30T06:13:03;9.50;;;5.32;;
78778;SDS011;68121;52.404;5.318;2024-01-30T06:15:29;12.70;;;6.50;;
78778;SDS011;68121;52.404;5.318;2024-01-30T06:17:55;10.70;;;4.68;;
78778;SDS011;68121;52.404;5.318;2024-01-30T06:20:21;8.38;;;5.07;;
78778;SDS011;68121;52.404;5.318;2024-01-30T06:22:47;7.50;;;4.80;;
78778;SDS011;68121;52.404;5.318;2024-01-30T06:25:13;9.85;;;6.20;;
78778;SDS011;68121;52.404;5.318;2024-01-30T06:27:39;8.30;;;5.22;;
78778;SDS011;68121;52.404;5.318;2024-01-30T06:30:06;9.23;;;5.32;;
78778;SDS011;68121;52.404;5.318;2024-01-30T06:32:32;8.65;;;4.47;;
78778;SDS011;68121;52.404;5.318;2024-01-30T06:35:00;7.78;;;5.05;;
78778;SDS011;68121;52.404;5.318;2024-01-30T06:37:27;10.85;;;5.28;;
78778;SDS011;68121;52.404;5.318;2024-01-30T06:39:53;11.70;;;5.13;;
78778;SDS011;68121;52.404;5.318;2024-01-30T06:42:19;11.00;;;5.78;;
78778;SDS011;68121;52.404;5.318;2024-01-30T06:44:45;11.15;;;6.20;;
78778;SDS011;68121;52.404;5.318;2024-01-30T06:47:11;9.20;;;4.85;;
78778;SDS011;68121;52.404;5.318;2024-01-30T06:49:37;11.05;;;5.07;;
78778;SDS011;68121;52.404;5.318;2024-01-30T06:52:06;9.18;;;5.35;;
78778;SDS011;68121;52.404;5.318;2024-01-30T06:54:33;10.80;;;5.30;;
78778;SDS011;68121;52.404;5.318;2024-01-30T06:56:59;9.68;;;5.15;;
78778;SDS011;68121;52.404;5.318;2024-01-30T06:59:26;12.85;;;5.38;;
78778;SDS011;68121;52.404;5.318;2024-01-30T07:01:52;10.02;;;5.05;;
78778;SDS011;68121;52.404;5.318;2024-01-30T07:04:18;8.43;;;4.15;;
78778;SDS011;68121;52.404;5.318;2024-01-30T07:06:44;7.35;;;4.22;;
78778;SDS011;68121;52.404;5.318;2024-01-30T07:09:10;7.50;;;4.63;;
78778;SDS011;68121;52.404;5.318;2024-01-30T07:11:36;10.63;;;5.05;;
78778;SDS011;68121;52.404;5.318;2024-01-30T07:14:02;10.85;;;4.78;;
78778;SDS011;68121;52.404;5.318;2024-01-30T07:16:30;8.73;;;4.50;;
78778;SDS011;68121;52.404;5.318;2024-01-30T07:18:56;11.30;;;5.13;;
78778;SDS011;68121;52.404;5.318;2024-01-30T07:21:22;9.27;;;5.38;;
78778;SDS011;68121;52.404;5.318;2024-01-30T07:23:56;10.63;;;4.85;;
78778;SDS011;68121;52.404;5.318;2024-01-30T07:26:22;10.15;;;5.03;;
78778;SDS011;68121;52.404;5.318;2024-01-30T07:28:49;8.60;;;5.40;;
78778;SDS011;68121;52.404;5.318;2024-01-30T07:31:15;8.13;;;5.03;;
78778;SDS011;68121;52.404;5.318;2024-01-30T07:33:41;9.98;;;5.07;;
78778;SDS011;68121;52.404;5.318;2024-01-30T07:36:07;10.32;;;4.60;;
78778;SDS011;68121;52.404;5.318;2024-01-30T07:38:34;9.57;;;4.72;;
78778;SDS011;68121;52.404;5.318;2024-01-30T07:41:00;10.27;;;4.93;;
78778;SDS011;68121;52.404;5.318;2024-01-30T07:43:26;11.05;;;4.60;;
78778;SDS011;68121;52.404;5.318;2024-01-30T07:45:52;8.60;;;4.57;;
78778;SDS011;68121;52.404;5.318;2024-01-30T07:48:18;9.48;;;5.00;;
78778;SDS011;68121;52.404;5.318;2024-01-30T07:50:44;8.68;;;4.30;;
78778;SDS011;68121;52.404;5.318;2024-01-30T07:53:10;8.25;;;4.40;;
78778;SDS011;68121;52.404;5.318;2024-01-30T07:55:36;8.40;;;4.57;;
78778;SDS011;68121;52.404;5.318;2024-01-30T07:58:02;10.68;;;5.95;;
78778;SDS011;68121;52.404;5.318;2024-01-30T08:00:30;11.55;;;4.80;;
78778;SDS011;68121;52.404;5.318;2024-01-30T08:02:56;14.98;;;5.03;;
78778;SDS011;68121;52.404;5.318;2024-01-30T08:05:22;10.45;;;4.70;;
78778;SDS011;68121;52.404;5.318;2024-01-30T08:07:49;7.93;;;3.75;;
78778;SDS011;68121;52.404;5.318;2024-01-30T08:10:15;9.85;;;4.90;;
78778;SDS011;68121;52.404;5.318;2024-01-30T08:12:44;10.43;;;5.00;;
78778;SDS011;68121;52.404;5.318;2024-01-30T08:15:11;10.85;;;4.93;;
78778;SDS011;68121;52.404;5.318;2024-01-30T08:17:40;7.55;;;4.57;;
78778;SDS011;68121;52.404;5.318;2024-01-30T08:20:06;8.77;;;4.18;;
78778;SDS011;68121;52.404;5.318;2024-01-30T08:22:40;8.40;;;4.72;;
78778;SDS011;68121;52.404;5.318;2024-01-30T08:25:06;10.40;;;4.93;;
78778;SDS011;68121;52.404;5.318;2024-01-30T08:27:33;8.50;;;4.85;;
78778;SDS011;68121;52.404;5.318;2024-01-30T08:30:01;11.43;;;4.85;;
78778;SDS011;68121;52.404;5.318;2024-01-30T08:32:31;7.88;;;4.10;;
78778;SDS011;68121;52.404;5.318;2024-01-30T08:34:58;6.80;;;4.22;;
78778;SDS011;68121;52.404;5.318;2024-01-30T08:37:24;6.47;;;4.10;;
78778;SDS011;68121;52.404;5.318;2024-01-30T08:39:50;10.15;;;4.10;;
78778;SDS011;68121;52.404;5.318;2024-01-30T08:42:16;6.70;;;3.33;;
78778;SDS011;68121;52.404;5.318;2024-01-30T08:44:48;8.30;;;4.63;;
78778;SDS011;68121;52.404;5.318;2024-01-30T08:47:15;9.20;;;4.65;;
78778;SDS011;68121;52.404;5.318;2024-01-30T08:49:42;5.78;;;3.80;;
78778;SDS011;68121;52.404;5.318;2024-01-30T08:52:12;9.02;;;4.85;;
78778;SDS011;68121;52.404;5.318;2024-01-30T08:54:38;15.40;;;5.50;;
78778;SDS011;68121;52.404;5.318;2024-01-30T08:57:05;7.47;;;4.70;;
78778;SDS011;68121;52.404;5.318;2024-01-30T08:59:31;14.40;;;4.88;;
78778;SDS011;68121;52.404;5.318;2024-01-30T09:01:57;9.32;;;5.80;;
78778;SDS011;68121;52.404;5.318;2024-01-30T09:04:24;7.63;;;4.38;;
78778;SDS011;68121;52.404;5.318;2024-01-30T09:06:51;9.00;;;4.47;;
78778;SDS011;68121;52.404;5.318;2024-01-30T09:09:17;9.73;;;4.53;;
78778;SDS011;68121;52.404;5.318;2024-01-30T09:11:43;9.00;;;3.60;;
78778;SDS011;68121;52.404;5.318;2024-01-30T09:14:09;7.68;;;3.88;;
78778;SDS011;68121;52.404;5.318;2024-01-30T09:16:35;13.73;;;4.90;;
78778;SDS011;68121;52.404;5.318;2024-01-30T09:19:01;5.18;;;3.33;;
78778;SDS011;68121;52.404;5.318;2024-01-30T09:21:27;6.97;;;4.40;;
78778;SDS011;68121;52.404;5.318;2024-01-30T09:24:01;10.90;;;4.93;;
78778;SDS011;68121;52.404;5.318;2024-01-30T09:26:29;7.38;;;4.03;;
78778;SDS011;68121;52.404;5.318;2024-01-30T09:28:55;8.45;;;4.03;;
78778;SDS011;68121;52.404;5.318;2024-01-30T09:31:21;10.20;;;4.60;;
78778;SDS011;68121;52.404;5.318;2024-01-30T09:33:47;13.23;;;4.57;;
78778;SDS011;68121;52.404;5.318;2024-01-30T09:36:14;9.98;;;4.65;;
78778;SDS011;68121;52.404;5.318;2024-01-30T09:38:44;8.05;;;4.80;;
78778;SDS011;68121;52.404;5.318;2024-01-30T09:41:10;11.35;;;4.70;;
78778;SDS011;68121;52.404;5.318;2024-01-30T09:43:37;6.85;;;4.47;;
78778;SDS011;68121;52.404;5.318;2024-01-30T09:46:03;9.45;;;4.22;;
78778;SDS011;68121;52.404;5.318;2024-01-30T09:48:31;9.85;;;4.60;;
78778;SDS011;68121;52.404;5.318;2024-01-30T09:50:59;13.05;;;4.35;;
78778;SDS011;68121;52.404;5.318;2024-01-30T09:53:25;10.95;;;5.18;;
78778;SDS011;68121;52.404;5.318;2024-01-30T09:55:51;7.30;;;4.43;;
78778;SDS011;68121;52.404;5.318;2024-01-30T09:58:17;15.20;;;6.28;;
78778;SDS011;68121;52.404;5.318;2024-01-30T10:00:43;12.77;;;5.07;;
78778;SDS011;68121;52.404;5.318;2024-01-30T10:03:09;11.25;;;5.35;;
78778;SDS011;68121;52.404;5.318;2024-01-30T10:05:36;9.88;;;3.83;;
78778;SDS011;68121;52.404;5.318;2024-01-30T10:08:06;9.55;;;5.25;;
78778;SDS011;68121;52.404;5.318;2024-01-30T10:10:35;10.82;;;4.95;;
78778;SDS011;68121;52.404;5.318;2024-01-30T10:13:02;8.43;;;4.00;;
78778;SDS011;68121;52.404;5.318;2024-01-30T10:15:28;10.57;;;4.40;;
78778;SDS011;68121;52.404;5.318;2024-01-30T10:17:54;11.10;;;4.25;;
78778;SDS011;68121;52.404;5.318;2024-01-30T10:20:20;9.40;;;4.78;;
78778;SDS011;68121;52.404;5.318;2024-01-30T10:22:48;9.10;;;5.07;;
78778;SDS011;68121;52.404;5.318;2024-01-30T10:25:15;11.90;;;5.13;;
78778;SDS011;68121;52.404;5.318;2024-01-30T10:27:41;8.95;;;4.30;;
78778;SDS011;68121;52.404;5.318;2024-01-30T10:30:08;7.43;;;4.05;;
78778;SDS011;68121;52.404;5.318;2024-01-30T10:32:34;8.52;;;3.97;;
78778;SDS011;68121;52.404;5.318;2024-01-30T10:35:01;5.63;;;3.58;;
78778;SDS011;68121;52.404;5.318;2024-01-30T10:37:27;6.10;;;3.72;;
78778;SDS011;68121;52.404;5.318;2024-01-30T10:39:57;7.28;;;3.55;;
78778;SDS011;68121;52.404;5.318;2024-01-30T10:42:27;5.45;;;3.00;;
78778;SDS011;68121;52.404;5.318;2024-01-30T10:45:15;6.47;;;3.90;;
78778;SDS011;68121;52.404;5.318;2024-01-30T10:47:43;11.32;;;4.20;;
78778;SDS011;68121;52.404;5.318;2024-01-30T10:50:14;6.88;;;3.80;;
78778;SDS011;68121;52.404;5.318;2024-01-30T10:52:40;7.35;;;3.35;;
78778;SDS011;68121;52.404;5.318;2024-01-30T10:55:10;4.10;;;2.25;;
78778;SDS011;68121;52.404;5.318;2024-01-30T10:57:36;5.80;;;2.05;;
78778;SDS011;68121;52.404;5.318;2024-01-30T11:00:07;8.48;;;2.60;;
78778;SDS011;68121;52.404;5.318;2024-01-30T11:02:42;5.43;;;2.47;;
78778;SDS011;68121;52.404;5.318;2024-01-30T11:05:10;6.90;;;2.55;;
78778;SDS011;68121;52.404;5.318;2024-01-30T11:07:38;8.07;;;2.00;;
78778;SDS011;68121;52.404;5.318;2024-01-30T11:10:06;7.43;;;2.10;;
78778;SDS011;68121;52.404;5.318;2024-01-30T11:12:38;5.32;;;2.63;;
78778;SDS011;68121;52.404;5.318;2024-01-30T11:15:09;2.53;;;1.33;;
78778;SDS011;68121;52.404;5.318;2024-01-30T11:17:44;2.55;;;1.27;;
78778;SDS011;68121;52.404;5.318;2024-01-30T11:20:14;3.80;;;1.42;;
78778;SDS011;68121;52.404;5.318;2024-01-30T11:22:47;2.45;;;1.25;;
78778;SDS011;68121;52.404;5.318;2024-01-30T11:25:16;3.88;;;1.33;;
78778;SDS011;68121;52.404;5.318;2024-01-30T11:27:44;3.65;;;1.13;;
78778;SDS011;68121;52.404;5.318;2024-01-30T11:30:28;3.65;;;0.80;;
78778;SDS011;68121;52.404;5.318;2024-01-30T11:35:24;1.30;;;0.90;;
78778;SDS011;68121;52.404;5.318;2024-01-30T11:37:51;3.70;;;1.08;;
78778;SDS011;68121;52.404;5.318;2024-01-30T11:40:17;4.00;;;1.10;;
78778;SDS011;68121;52.404;5.318;2024-01-30T11:42:44;1.27;;;0.73;;
78778;SDS011;68121;52.404;5.318;2024-01-30T11:45:12;2.42;;;0.90;;
78778;SDS011;68121;52.404;5.318;2024-01-30T11:47:38;5.28;;;1.13;;
78778;SDS011;68121;52.404;5.318;2024-01-30T11:50:04;4.57;;;0.80;;
78778;SDS011;68121;52.404;5.318;2024-01-30T11:52:33;3.17;;;0.93;;
78778;SDS011;68121;52.404;5.318;2024-01-30T11:55:00;0.93;;;0.80;;
78778;SDS011;68121;52.404;5.318;2024-01-30T11:57:26;3.53;;;0.80;;
78778;SDS011;68121;52.404;5.318;2024-01-30T11:59:53;4.53;;;0.88;;
78778;SDS011;68121;52.404;5.318;2024-01-30T12:02:19;1.77;;;0.60;;
78778;SDS011;68121;52.404;5.318;2024-01-30T12:04:45;2.33;;;0.90;;
78778;SDS011;68121;52.404;5.318;2024-01-30T12:07:11;1.45;;;0.80;;
78778;SDS011;68121;52.404;5.318;2024-01-30T12:09:41;3.30;;;0.63;;
78778;SDS011;68121;52.404;5.318;2024-01-30T12:12:08;2.97;;;1.48;;
78778;SDS011;68121;52.404;5.318;2024-01-30T12:14:38;0.98;;;0.70;;
78778;SDS011;68121;52.404;5.318;2024-01-30T12:17:05;5.93;;;0.80;;
78778;SDS011;68121;52.404;5.318;2024-01-30T12:19:33;2.00;;;0.70;;
78778;SDS011;68121;52.404;5.318;2024-01-30T12:21:59;3.85;;;0.55;;
78778;SDS011;68121;52.404;5.318;2024-01-30T12:24:25;4.05;;;0.80;;
78778;SDS011;68121;52.404;5.318;2024-01-30T12:26:56;4.63;;;1.00;;
78778;SDS011;68121;52.404;5.318;2024-01-30T12:29:22;1.98;;;0.90;;
78778;SDS011;68121;52.404;5.318;2024-01-30T12:31:48;4.10;;;0.80;;
78778;SDS011;68121;52.404;5.318;2024-01-30T12:34:19;4.85;;;1.52;;
78778;SDS011;68121;52.404;5.318;2024-01-30T12:36:48;2.72;;;0.70;;
78778;SDS011;68121;52.404;5.318;2024-01-30T12:39:15;1.13;;;0.50;;
78778;SDS011;68121;52.404;5.318;2024-01-30T12:41:41;2.95;;;0.93;;
78778;SDS011;68121;52.404;5.318;2024-01-30T12:44:07;1.92;;;0.73;;
78778;SDS011;68121;52.404;5.318;2024-01-30T12:46:34;3.00;;;0.80;;
78778;SDS011;68121;52.404;5.318;2024-01-30T12:49:00;3.08;;;0.82;;
78778;SDS011;68121;52.404;5.318;2024-01-30T12:51:26;5.03;;;0.65;;
78778;SDS011;68121;52.404;5.318;2024-01-30T12:53:52;4.80;;;0.88;;
78778;SDS011;68121;52.404;5.318;2024-01-30T12:56:18;1.02;;;0.55;;
78778;SDS011;68121;52.404;5.318;2024-01-30T12:58:44;2.13;;;1.00;;
78778;SDS011;68121;52.404;5.318;2024-01-30T13:01:10;2.70;;;0.77;;
78778;SDS011;68121;52.404;5.318;2024-01-30T13:03:36;5.07;;;0.95;;
78778;SDS011;68121;52.404;5.318;2024-01-30T13:06:03;1.60;;;0.47;;
78778;SDS011;68121;52.404;5.318;2024-01-30T13:08:29;2.15;;;0.70;;
78778;SDS011;68121;52.404;5.318;2024-01-30T13:10:55;2.55;;;0.60;;
78778;SDS011;68121;52.404;5.318;2024-01-30T13:13:21;1.90;;;0.88;;
78778;SDS011;68121;52.404;5.318;2024-01-30T13:15:47;1.70;;;0.98;;
78778;SDS011;68121;52.404;5.318;2024-01-30T13:18:14;7.00;;;1.17;;
78778;SDS011;68121;52.404;5.318;2024-01-30T13:20:40;3.03;;;0.60;;
78778;SDS011;68121;52.404;5.318;2024-01-30T13:23:06;1.00;;;0.63;;
78778;SDS011;68121;52.404;5.318;2024-01-30T13:25:32;2.38;;;0.90;;
78778;SDS011;68121;52.404;5.318;2024-01-30T13:27:58;0.93;;;0.80;;
78778;SDS011;68121;52.404;5.318;2024-01-30T13:30:24;5.97;;;1.33;;
78778;SDS011;68121;52.404;5.318;2024-01-30T13:32:50;3.22;;;1.10;;
78778;SDS011;68121;52.404;5.318;2024-01-30T13:35:16;4.07;;;0.65;;
78778;SDS011;68121;52.404;5.318;2024-01-30T13:37:42;3.22;;;1.00;;
78778;SDS011;68121;52.404;5.318;2024-01-30T13:40:08;4.47;;;1.30;;
78778;SDS011;68121;52.404;5.318;2024-01-30T13:42:34;1.83;;;0.73;;
78778;SDS011;68121;52.404;5.318;2024-01-30T13:45:01;2.15;;;0.95;;
78778;SDS011;68121;52.404;5.318;2024-01-30T13:47:27;2.35;;;1.05;;
78778;SDS011;68121;52.404;5.318;2024-01-30T13:49:53;3.33;;;1.05;;
78778;SDS011;68121;52.404;5.318;2024-01-30T13:52:19;2.63;;;0.70;;
78778;SDS011;68121;52.404;5.318;2024-01-30T13:54:45;1.42;;;1.20;;
78778;SDS011;68121;52.404;5.318;2024-01-30T13:57:11;3.20;;;0.95;;
78778;SDS011;68121;52.404;5.318;2024-01-30T13:59:37;1.83;;;0.77;;
78778;SDS011;68121;52.404;5.318;2024-01-30T14:02:03;4.43;;;1.13;;
78778;SDS011;68121;52.404;5.318;2024-01-30T14:04:31;2.22;;;1.23;;
78778;SDS011;68121;52.404;5.318;2024-01-30T14:06:57;1.65;;;0.93;;
78778;SDS011;68121;52.404;5.318;2024-01-30T14:09:23;1.90;;;1.02;;
78778;SDS011;68121;52.404;5.318;2024-01-30T14:11:49;2.65;;;1.20;;
78778;SDS011;68121;52.404;5.318;2024-01-30T14:14:15;3.05;;;1.05;;
78778;SDS011;68121;52.404;5.318;2024-01-30T14:16:41;4.07;;;1.25;;
78778;SDS011;68121;52.404;5.318;2024-01-30T14:19:07;3.63;;;1.27;;
78778;SDS011;68121;52.404;5.318;2024-01-30T14:21:33;2.30;;;1.10;;
78778;SDS011;68121;52.404;5.318;2024-01-30T14:23:59;4.30;;;1.23;;
78778;SDS011;68121;52.404;5.318;2024-01-30T14:26:25;3.80;;;1.85;;
78778;SDS011;68121;52.404;5.318;2024-01-30T14:28:51;1.58;;;1.33;;
78778;SDS011;68121;52.404;5.318;2024-01-30T14:31:17;1.40;;;1.05;;
78778;SDS011;68121;52.404;5.318;2024-01-30T14:33:45;1.27;;;0.95;;
78778;SDS011;68121;52.404;5.318;2024-01-30T14:36:11;1.60;;;1.15;;
78778;SDS011;68121;52.404;5.318;2024-01-30T14:38:37;2.38;;;0.98;;
78778;SDS011;68121;52.404;5.318;2024-01-30T14:41:03;1.85;;;0.90;;